sensor_id;sensor_type;location;lat;lon;timestamp;pressure;altitude;pressure_sealevel;temperature;humidity
9307;BME280;4691;47.612;7.610;2023-04-25T00:00:14;98348.16;;;10.19;100.00
9307;BME280;4691;47.612;7.610;2023-04-25T00:02:40;98352.19;;;10.13;100.00
9307;BME280;4691;47.612;7.610;2023-04-25T00:05:05;98347.69;;;10.14;100.00
9307;BME280;4691;47.612;7.610;2023-04-25T00:07:31;98351.47;;;10.11;100.00
9307;BME280;4691;47.612;7.610;2023-04-25T00:09:57;98347.97;;;10.11;100.00
9307;BME280;4691;47.612;7.610;2023-04-25T00:12:23;98364.84;;;10.11;100.00
9307;BME280;4691;47.612;7.610;2023-04-25T00:14:48;98362.88;;;10.13;100.00
9307;BME280;4691;47.612;7.610;2023-04-25T00:17:15;98351.63;;;10.10;100.00
9307;BME280;4691;47.612;7.610;2023-04-25T00:19:41;98354.28;;;10.10;100.00
9307;BME280;4691;47.612;7.610;2023-04-25T00:22:07;98354.41;;;10.08;100.00
9307;BME280;4691;47.612;7.610;2023-04-25T00:24:32;98342.16;;;10.06;100.00
9307;BME280;4691;47.612;7.610;2023-04-25T00:26:58;98337.34;;;9.99;100.00
9307;BME280;4691;47.612;7.610;2023-04-25T00:29:23;98335.41;;;9.90;100.00
9307;BME280;4691;47.612;7.610;2023-04-25T00:31:48;98334.56;;;9.90;100.00
9307;BME280;4691;47.612;7.610;2023-04-25T00:34:13;98336.16;;;9.92;100.00
9307;BME280;4691;47.612;7.610;2023-04-25T00:36:39;98336.25;;;9.91;100.00
9307;BME280;4691;47.612;7.610;2023-04-25T00:39:04;98329.50;;;9.87;100.00
9307;BME280;4691;47.612;7.610;2023-04-25T00:41:32;98329.59;;;9.85;100.00
9307;BME280;4691;47.612;7.610;2023-04-25T00:43:58;98334.94;;;9.85;100.00
9307;BME280;4691;47.612;7.610;2023-04-25T00:46:24;98332.28;;;9.85;100.00
9307;BME280;4691;47.612;7.610;2023-04-25T00:48:49;98327.47;;;9.79;100.00
9307;BME280;4691;47.612;7.610;2023-04-25T00:51:19;98334.47;;;9.80;100.00
9307;BME280;4691;47.612;7.610;2023-04-25T00:53:45;98333.91;;;9.76;100.00
9307;BME280;4691;47.612;7.610;2023-04-25T00:56:11;98330.41;;;9.65;100.00
9307;BME280;4691;47.612;7.610;2023-04-25T00:58:37;98326.69;;;9.56;100.00
9307;BME280;4691;47.612;7.610;2023-04-25T01:01:03;98322.66;;;9.50;100.00
9307;BME280;4691;47.612;7.610;2023-04-25T01:03:32;98317.84;;;9.44;100.00
9307;BME280;4691;47.612;7.610;2023-04-25T01:05:57;98311.28;;;9.37;100.00
9307;BME280;4691;47.612;7.610;2023-04-25T01:08:24;98302.69;;;9.33;100.00
9307;BME280;4691;47.612;7.610;2023-04-25T01:10:52;98299.91;;;9.24;100.00
9307;BME280;4691;47.612;7.610;2023-04-25T01:13:17;98298.97;;;9.13;100.00
9307;BME280;4691;47.612;7.610;2023-04-25T01:15:43;98294.88;;;9.09;100.00
9307;BME280;4691;47.612;7.610;2023-04-25T01:18:09;98288.81;;;9.07;100.00
9307;BME280;4691;47.612;7.610;2023-04-25T01:20:37;98291.94;;;9.01;100.00
9307;BME280;4691;47.612;7.610;2023-04-25T01:23:03;98275.59;;;8.94;100.00
9307;BME280;4691;47.612;7.610;2023-04-25T01:25:30;98274.50;;;8.86;100.00
9307;BME280;4691;47.612;7.610;2023-04-25T01:27:57;98267.97;;;8.79;100.00
9307;BME280;4691;47.612;7.610;2023-04-25T01:30:24;98255.13;;;8.72;100.00
9307;BME280;4691;47.612;7.610;2023-04-25T01:32:50;98252.22;;;8.64;100.00
9307;BME280;4691;47.612;7.610;2023-04-25T01:35:16;98237.69;;;8.57;100.00
9307;BME280;4691;47.612;7.610;2023-04-25T01:37:42;98226.03;;;8.47;100.00
9307;BME280;4691;47.612;7.610;2023-04-25T01:40:09;98219.50;;;8.40;100.00
9307;BME280;4691;47.612;7.610;2023-04-25T01:42:37;98203.25;;;8.32;100.00
9307;BME280;4691;47.612;7.610;2023-04-25T01:45:03;98185.19;;;8.24;100.00
9307;BME280;4691;47.612;7.610;2023-04-25T01:47:29;98173.47;;;8.15;100.00
9307;BME280;4691;47.612;7.610;2023-04-25T01:49:54;98166.91;;;8.08;100.00
9307;BME280;4691;47.612;7.610;2023-04-25T01:52:20;98154.09;;;8.02;100.00
9307;BME280;4691;47.612;7.610;2023-04-25T01:54:46;98150.94;;;7.97;100.00
9307;BME280;4691;47.612;7.610;2023-04-25T01:57:11;98141.72;;;7.90;100.00
9307;BME280;4691;47.612;7.610;2023-04-25T01:59:37;98127.94;;;7.84;100.00
9307;BME280;4691;47.612;7.610;2023-04-25T02:02:03;98127.34;;;7.81;100.00
9307;BME280;4691;47.612;7.610;2023-04-25T02:04:32;98121.38;;;7.77;100.00
9307;BME280;4691;47.612;7.610;2023-04-25T02:06:57;98125.25;;;7.73;100.00
9307;BME280;4691;47.612;7.610;2023-04-25T02:09:23;98121.88;;;7.71;100.00
9307;BME280;4691;47.612;7.610;2023-04-25T02:11:48;98115.81;;;7.69;100.00
9307;BME280;4691;47.612;7.610;2023-04-25T02:14:14;98097.44;;;7.66;100.00
9307;BME280;4691;47.612;7.610;2023-04-25T02:19:31;98085.56;;;7.59;100.00
9307;BME280;4691;47.612;7.610;2023-04-25T02:21:57;98083.25;;;7.54;100.00
9307;BME280;4691;47.612;7.610;2023-04-25T02:24:23;98084.31;;;7.52;100.00
9307;BME280;4691;47.612;7.610;2023-04-25T02:26:48;98073.09;;;7.48;100.00
9307;BME280;4691;47.612;7.610;2023-04-25T02:29:15;98063.53;;;7.46;100.00
9307;BME280;4691;47.612;7.610;2023-04-25T02:31:40;98057.81;;;7.39;100.00
9307;BME280;4691;47.612;7.610;2023-04-25T02:34:07;98053.84;;;7.33;100.00
9307;BME280;4691;47.612;7.610;2023-04-25T02:36:33;98035.31;;;7.32;100.00
9307;BME280;4691;47.612;7.610;2023-04-25T02:39:00;98037.47;;;7.27;100.00
9307;BME280;4691;47.612;7.610;2023-04-25T02:41:26;98027.94;;;7.24;100.00
9307;BME280;4691;47.612;7.610;2023-04-25T02:43:52;98021.16;;;7.20;100.00
9307;BME280;4691;47.612;7.610;2023-04-25T02:46:17;98013.53;;;7.15;100.00
9307;BME280;4691;47.612;7.610;2023-04-25T02:48:42;97994.19;;;7.13;100.00
9307;BME280;4691;47.612;7.610;2023-04-25T02:51:08;97985.38;;;7.13;100.00
9307;BME280;4691;47.612;7.610;2023-04-25T02:53:33;97973.19;;;7.10;100.00
9307;BME280;4691;47.612;7.610;2023-04-25T02:55:59;97974.00;;;7.11;100.00
9307;BME280;4691;47.612;7.610;2023-04-25T02:58:24;97962.53;;;7.10;100.00
9307;BME280;4691;47.612;7.610;2023-04-25T03:00:50;97957.22;;;7.10;100.00
9307;BME280;4691;47.612;7.610;2023-04-25T03:03:15;97956.38;;;7.10;100.00
9307;BME280;4691;47.612;7.610;2023-04-25T03:05:43;97945.59;;;7.11;100.00
9307;BME280;4691;47.612;7.610;2023-04-25T03:08:08;97940.53;;;7.08;100.00
9307;BME280;4691;47.612;7.610;2023-04-25T03:10:34;97933.66;;;7.06;100.00
9307;BME280;4691;47.612;7.610;2023-04-25T03:12:59;97935.34;;;7.07;100.00
9307;BME280;4691;47.612;7.610;2023-04-25T03:15:24;97937.03;;;7.08;100.00
9307;BME280;4691;47.612;7.610;2023-04-25T03:17:50;97929.81;;;7.10;100.00
9307;BME280;4691;47.612;7.610;2023-04-25T03:20:15;97909.97;;;7.14;100.00
9307;BME280;4691;47.612;7.610;2023-04-25T03:22:41;97889.31;;;7.17;100.00
9307;BME280;4691;47.612;7.610;2023-04-25T03:25:15;97898.03;;;7.19;100.00
9307;BME280;4691;47.612;7.610;2023-04-25T03:27:40;97882.78;;;7.22;100.00
9307;BME280;4691;47.612;7.610;2023-04-25T03:30:06;97886.91;;;7.26;100.00
9307;BME280;4691;47.612;7.610;2023-04-25T03:32:34;97889.19;;;7.30;100.00
9307;BME280;4691;47.612;7.610;2023-04-25T03:34:59;97883.63;;;7.33;100.00
9307;BME280;4691;47.612;7.610;2023-04-25T03:37:25;97874.31;;;7.39;100.00
9307;BME280;4691;47.612;7.610;2023-04-25T03:39:50;97879.63;;;7.39;100.00
9307;BME280;4691;47.612;7.610;2023-04-25T03:42:16;97888.09;;;7.44;100.00
9307;BME280;4691;47.612;7.610;2023-04-25T03:44:41;97896.69;;;7.48;100.00
9307;BME280;4691;47.612;7.610;2023-04-25T03:47:06;97914.06;;;7.52;100.00
9307;BME280;4691;47.612;7.610;2023-04-25T03:49:33;97919.16;;;7.55;100.00
9307;BME280;4691;47.612;7.610;2023-04-25T03:51:59;97938.97;;;7.62;100.00
9307;BME280;4691;47.612;7.610;2023-04-25T03:54:25;97945.75;;;7.55;100.00
9307;BME280;4691;47.612;7.610;2023-04-25T03:56:50;97951.31;;;7.52;100.00
9307;BME280;4691;47.612;7.610;2023-04-25T03:59:15;97948.53;;;7.53;100.00
9307;BME280;4691;47.612;7.610;2023-04-25T04:01:41;97950.84;;;7.58;100.00
9307;BME280;4691;47.612;7.610;2023-04-25T04:04:06;97962.44;;;7.68;100.00
9307;BME280;4691;47.612;7.610;2023-04-25T04:06:32;97963.41;;;7.56;100.00
9307;BME280;4691;47.612;7.610;2023-04-25T04:08:57;97949.13;;;7.57;100.00
9307;BME280;4691;47.612;7.610;2023-04-25T04:11:22;97948.88;;;7.60;100.00
9307;BME280;4691;47.612;7.610;2023-04-25T04:13:47;97936.56;;;7.59;100.00
9307;BME280;4691;47.612;7.610;2023-04-25T04:16:13;97932.72;;;7.63;100.00
9307;BME280;4691;47.612;7.610;2023-04-25T04:18:38;97925.91;;;7.70;100.00
9307;BME280;4691;47.612;7.610;2023-04-25T04:21:04;97926.03;;;7.69;100.00
9307;BME280;4691;47.612;7.610;2023-04-25T04:23:29;97912.59;;;7.70;100.00
9307;BME280;4691;47.612;7.610;2023-04-25T04:25:55;97907.28;;;7.70;100.00
9307;BME280;4691;47.612;7.610;2023-04-25T04:28:21;97891.09;;;7.73;100.00
9307;BME280;4691;47.612;7.610;2023-04-25T04:30:47;97893.22;;;7.79;100.00
9307;BME280;4691;47.612;7.610;2023-04-25T04:33:12;97888.84;;;7.90;100.00
9307;BME280;4691;47.612;7.610;2023-04-25T04:35:38;97892.47;;;7.89;100.00
9307;BME280;4691;47.612;7.610;2023-04-25T04:38:03;97897.16;;;7.96;100.00
9307;BME280;4691;47.612;7.610;2023-04-25T04:40:29;97914.69;;;7.99;100.00
9307;BME280;4691;47.612;7.610;2023-04-25T04:42:56;97920.63;;;8.02;100.00
9307;BME280;4691;47.612;7.610;2023-04-25T04:45:22;97932.00;;;8.04;100.00
9307;BME280;4691;47.612;7.610;2023-04-25T04:47:48;98000.16;;;8.07;100.00
9307;BME280;4691;47.612;7.610;2023-04-25T04:50:13;98019.75;;;7.95;100.00
9307;BME280;4691;47.612;7.610;2023-04-25T04:52:40;97907.19;;;7.38;100.00
9307;BME280;4691;47.612;7.610;2023-04-25T04:55:06;97830.47;;;7.00;100.00
9307;BME280;4691;47.612;7.610;2023-04-25T04:57:32;97768.25;;;6.80;100.00
9307;BME280;4691;47.612;7.610;2023-04-25T04:59:58;97740.72;;;6.69;100.00
9307;BME280;4691;47.612;7.610;2023-04-25T05:02:24;97715.25;;;6.67;100.00
9307;BME280;4691;47.612;7.610;2023-04-25T05:04:49;97663.22;;;6.64;100.00
9307;BME280;4691;47.612;7.610;2023-04-25T05:07:16;97651.41;;;6.57;100.00
9307;BME280;4691;47.612;7.610;2023-04-25T05:09:42;97609.28;;;6.52;100.00
9307;BME280;4691;47.612;7.610;2023-04-25T05:12:07;97558.84;;;6.52;100.00
9307;BME280;4691;47.612;7.610;2023-04-25T05:14:33;97475.25;;;6.57;100.00
9307;BME280;4691;47.612;7.610;2023-04-25T05:16:58;97453.38;;;6.64;100.00
9307;BME280;4691;47.612;7.610;2023-04-25T05:19:23;97439.34;;;6.73;100.00
9307;BME280;4691;47.612;7.610;2023-04-25T05:21:49;97449.34;;;6.70;100.00
9307;BME280;4691;47.612;7.610;2023-04-25T05:24:14;97431.88;;;6.67;100.00
9307;BME280;4691;47.612;7.610;2023-04-25T05:26:40;97429.81;;;6.71;100.00
9307;BME280;4691;47.612;7.610;2023-04-25T05:29:05;97446.91;;;6.78;100.00
9307;BME280;4691;47.612;7.610;2023-04-25T05:31:31;97443.56;;;6.76;100.00
9307;BME280;4691;47.612;7.610;2023-04-25T05:33:57;97454.63;;;6.81;100.00
9307;BME280;4691;47.612;7.610;2023-04-25T05:36:22;97461.81;;;6.90;100.00
9307;BME280;4691;47.612;7.610;2023-04-25T05:38:47;97469.66;;;6.92;100.00
9307;BME280;4691;47.612;7.610;2023-04-25T05:41:13;97457.09;;;6.94;100.00
9307;BME280;4691;47.612;7.610;2023-04-25T05:43:38;97471.69;;;7.00;100.00
9307;BME280;4691;47.612;7.610;2023-04-25T05:46:04;97491.22;;;6.98;100.00
9307;BME280;4691;47.612;7.610;2023-04-25T05:48:29;97550.56;;;6.99;100.00
9307;BME280;4691;47.612;7.610;2023-04-25T05:50:55;97577.72;;;7.03;100.00
9307;BME280;4691;47.612;7.610;2023-04-25T05:53:20;97594.84;;;7.10;100.00
9307;BME280;4691;47.612;7.610;2023-04-25T05:55:47;97617.31;;;7.17;100.00
9307;BME280;4691;47.612;7.610;2023-04-25T05:58:12;97628.88;;;7.16;100.00
9307;BME280;4691;47.612;7.610;2023-04-25T06:00:37;97649.53;;;7.24;100.00
9307;BME280;4691;47.612;7.610;2023-04-25T06:03:03;97704.25;;;7.26;100.00
9307;BME280;4691;47.612;7.610;2023-04-25T06:05:28;97685.38;;;7.29;100.00
9307;BME280;4691;47.612;7.610;2023-04-25T06:07:54;97696.63;;;7.33;100.00
9307;BME280;4691;47.612;7.610;2023-04-25T06:10:19;97689.38;;;7.35;100.00
9307;BME280;4691;47.612;7.610;2023-04-25T06:12:45;97694.28;;;7.39;100.00
9307;BME280;4691;47.612;7.610;2023-04-25T06:15:10;97697.34;;;7.35;100.00
9307;BME280;4691;47.612;7.610;2023-04-25T06:17:36;97683.47;;;7.31;100.00
9307;BME280;4691;47.612;7.610;2023-04-25T06:20:01;97668.47;;;7.30;100.00
9307;BME280;4691;47.612;7.610;2023-04-25T06:22:27;97655.50;;;7.37;100.00
9307;BME280;4691;47.612;7.610;2023-04-25T06:24:52;97635.59;;;7.31;100.00
9307;BME280;4691;47.612;7.610;2023-04-25T06:27:17;97597.63;;;7.29;100.00
9307;BME280;4691;47.612;7.610;2023-04-25T06:29:43;97554.41;;;7.27;100.00
9307;BME280;4691;47.612;7.610;2023-04-25T06:32:08;97516.72;;;7.22;100.00
9307;BME280;4691;47.612;7.610;2023-04-25T06:34:33;97491.09;;;7.21;100.00
9307;BME280;4691;47.612;7.610;2023-04-25T06:36:58;97477.31;;;7.27;100.00
9307;BME280;4691;47.612;7.610;2023-04-25T06:39:24;97464.13;;;7.26;100.00
9307;BME280;4691;47.612;7.610;2023-04-25T06:41:50;97464.47;;;7.32;100.00
9307;BME280;4691;47.612;7.610;2023-04-25T06:44:15;97473.56;;;7.39;100.00
9307;BME280;4691;47.612;7.610;2023-04-25T06:46:41;97449.06;;;7.36;100.00
9307;BME280;4691;47.612;7.610;2023-04-25T06:49:06;97434.94;;;7.35;100.00
9307;BME280;4691;47.612;7.610;2023-04-25T06:51:34;97438.31;;;7.37;100.00
9307;BME280;4691;47.612;7.610;2023-04-25T06:54:00;97437.19;;;7.40;100.00
9307;BME280;4691;47.612;7.610;2023-04-25T06:56:25;97445.03;;;7.41;100.00
9307;BME280;4691;47.612;7.610;2023-04-25T06:58:50;97451.19;;;7.42;100.00
9307;BME280;4691;47.612;7.610;2023-04-25T07:01:16;97451.78;;;7.46;100.00
9307;BME280;4691;47.612;7.610;2023-04-25T07:03:41;97447.84;;;7.50;100.00
9307;BME280;4691;47.612;7.610;2023-04-25T07:06:06;97431.88;;;7.40;100.00
9307;BME280;4691;47.612;7.610;2023-04-25T07:08:32;97419.03;;;7.45;100.00
9307;BME280;4691;47.612;7.610;2023-04-25T07:10:57;97415.41;;;7.56;100.00
9307;BME280;4691;47.612;7.610;2023-04-25T07:13:22;97421.31;;;7.59;100.00
9307;BME280;4691;47.612;7.610;2023-04-25T07:15:48;97425.50;;;7.62;100.00
9307;BME280;4691;47.612;7.610;2023-04-25T07:18:13;97426.50;;;7.61;100.00
9307;BME280;4691;47.612;7.610;2023-04-25T07:20:39;97442.84;;;7.56;100.00
9307;BME280;4691;47.612;7.610;2023-04-25T07:23:04;97457.97;;;7.56;100.00
9307;BME280;4691;47.612;7.610;2023-04-25T07:25:29;97475.34;;;7.60;100.00
9307;BME280;4691;47.612;7.610;2023-04-25T07:27:56;97486.19;;;7.68;100.00
9307;BME280;4691;47.612;7.610;2023-04-25T07:30:21;97500.88;;;7.72;100.00
9307;BME280;4691;47.612;7.610;2023-04-25T07:32:47;97521.91;;;7.75;100.00
9307;BME280;4691;47.612;7.610;2023-04-25T07:35:13;97527.25;;;7.85;100.00
9307;BME280;4691;47.612;7.610;2023-04-25T07:37:38;97546.88;;;7.84;100.00
9307;BME280;4691;47.612;7.610;2023-04-25T07:40:04;97574.63;;;7.91;100.00
9307;BME280;4691;47.612;7.610;2023-04-25T07:42:30;97600.78;;;8.07;100.00
9307;BME280;4691;47.612;7.610;2023-04-25T07:44:55;97620.41;;;8.16;100.00
9307;BME280;4691;47.612;7.610;2023-04-25T07:47:20;97651.53;;;8.15;100.00
9307;BME280;4691;47.612;7.610;2023-04-25T07:49:46;97674.56;;;8.26;100.00
9307;BME280;4691;47.612;7.610;2023-04-25T07:52:14;97696.00;;;8.24;100.00
9307;BME280;4691;47.612;7.610;2023-04-25T07:54:39;97693.38;;;8.34;100.00
9307;BME280;4691;47.612;7.610;2023-04-25T07:57:05;97713.56;;;8.48;100.00
9307;BME280;4691;47.612;7.610;2023-04-25T07:59:31;97722.94;;;8.52;100.00
9307;BME280;4691;47.612;7.610;2023-04-25T08:01:57;97731.03;;;8.71;100.00
9307;BME280;4691;47.612;7.610;2023-04-25T08:04:23;97743.06;;;9.06;100.00
9307;BME280;4691;47.612;7.610;2023-04-25T08:06:48;97783.72;;;8.99;100.00
9307;BME280;4691;47.612;7.610;2023-04-25T08:09:13;97879.69;;;8.89;100.00
9307;BME280;4691;47.612;7.610;2023-04-25T08:11:38;97890.56;;;8.76;100.00
9307;BME280;4691;47.612;7.610;2023-04-25T08:14:05;97917.88;;;8.68;100.00
9307;BME280;4691;47.612;7.610;2023-04-25T08:16:30;97932.22;;;8.56;100.00
9307;BME280;4691;47.612;7.610;2023-04-25T08:18:55;97948.31;;;8.55;100.00
9307;BME280;4691;47.612;7.610;2023-04-25T08:21:21;97958.19;;;8.43;100.00
9307;BME280;4691;47.612;7.610;2023-04-25T08:23:46;97956.25;;;8.34;100.00
9307;BME280;4691;47.612;7.610;2023-04-25T08:26:12;97950.19;;;8.32;100.00
9307;BME280;4691;47.612;7.610;2023-04-25T08:28:37;97918.34;;;8.41;100.00
9307;BME280;4691;47.612;7.610;2023-04-25T08:31:02;97919.84;;;8.55;100.00
9307;BME280;4691;47.612;7.610;2023-04-25T08:33:28;97930.72;;;8.63;100.00
9307;BME280;4691;47.612;7.610;2023-04-25T08:35:54;97939.38;;;8.77;100.00
9307;BME280;4691;47.612;7.610;2023-04-25T08:38:19;97953.47;;;8.88;100.00
9307;BME280;4691;47.612;7.610;2023-04-25T08:40:49;97946.31;;;9.10;100.00
9307;BME280;4691;47.612;7.610;2023-04-25T08:43:18;97980.38;;;9.06;100.00
9307;BME280;4691;47.612;7.610;2023-04-25T08:45:44;98011.63;;;8.94;100.00
9307;BME280;4691;47.612;7.610;2023-04-25T08:48:14;98002.72;;;9.05;100.00
9307;BME280;4691;47.612;7.610;2023-04-25T08:51:01;98051.44;;;9.07;100.00
9307;BME280;4691;47.612;7.610;2023-04-25T08:53:29;98080.63;;;9.09;100.00
9307;BME280;4691;47.612;7.610;2023-04-25T08:55:56;98105.97;;;9.14;100.00
9307;BME280;4691;47.612;7.610;2023-04-25T08:58:22;98114.16;;;9.23;100.00
9307;BME280;4691;47.612;7.610;2023-04-25T09:00:49;98125.56;;;9.67;100.00
9307;BME280;4691;47.612;7.610;2023-04-25T09:03:15;98151.88;;;9.92;100.00
9307;BME280;4691;47.612;7.610;2023-04-25T09:05:41;98176.00;;;10.12;100.00
9307;BME280;4691;47.612;7.610;2023-04-25T09:08:06;98230.03;;;10.36;100.00
9307;BME280;4691;47.612;7.610;2023-04-25T09:10:32;98254.44;;;10.83;100.00
9307;BME280;4691;47.612;7.610;2023-04-25T09:13:05;98283.63;;;11.37;100.00
9307;BME280;4691;47.612;7.610;2023-04-25T09:15:32;98340.84;;;11.45;100.00
9307;BME280;4691;47.612;7.610;2023-04-25T09:17:59;98361.75;;;11.61;100.00
9307;BME280;4691;47.612;7.610;2023-04-25T09:20:24;98373.44;;;11.60;100.00
9307;BME280;4691;47.612;7.610;2023-04-25T09:23:04;98389.53;;;11.29;100.00
9307;BME280;4691;47.612;7.610;2023-04-25T09:25:36;98400.13;;;11.00;100.00
9307;BME280;4691;47.612;7.610;2023-04-25T09:28:05;98393.47;;;10.95;100.00
9307;BME280;4691;47.612;7.610;2023-04-25T09:30:33;98402.25;;;11.06;100.00
9307;BME280;4691;47.612;7.610;2023-04-25T09:33:09;98426.06;;;11.09;100.00
9307;BME280;4691;47.612;7.610;2023-04-25T09:35:37;98429.84;;;11.38;100.00
9307;BME280;4691;47.612;7.610;2023-04-25T09:38:08;98435.72;;;11.93;100.00
9307;BME280;4691;47.612;7.610;2023-04-25T09:40:33;98459.28;;;11.99;100.00
9307;BME280;4691;47.612;7.610;2023-04-25T09:42:58;98478.75;;;11.70;100.00
9307;BME280;4691;47.612;7.610;2023-04-25T09:45:24;98470.91;;;11.78;100.00
9307;BME280;4691;47.612;7.610;2023-04-25T09:47:49;98481.31;;;12.03;100.00
9307;BME280;4691;47.612;7.610;2023-04-25T09:50:16;98489.59;;;11.99;100.00
9307;BME280;4691;47.612;7.610;2023-04-25T09:52:43;98494.44;;;12.06;100.00
9307;BME280;4691;47.612;7.610;2023-04-25T09:55:08;98494.78;;;12.41;100.00
9307;BME280;4691;47.612;7.610;2023-04-25T09:57:34;98487.72;;;12.50;100.00
9307;BME280;4691;47.612;7.610;2023-04-25T10:00:00;98496.25;;;13.61;100.00
9307;BME280;4691;47.612;7.610;2023-04-25T10:02:27;98494.97;;;15.45;100.00
9307;BME280;4691;47.612;7.610;2023-04-25T10:04:55;98505.16;;;16.87;100.00
9307;BME280;4691;47.612;7.610;2023-04-25T10:07:26;98495.16;;;16.71;100.00
9307;BME280;4691;47.612;7.610;2023-04-25T10:10:01;98518.56;;;14.54;100.00
9307;BME280;4691;47.612;7.610;2023-04-25T10:12:28;98525.53;;;13.91;100.00
9307;BME280;4691;47.612;7.610;2023-04-25T10:14:54;98528.06;;;13.56;100.00
9307;BME280;4691;47.612;7.610;2023-04-25T10:17:20;98520.22;;;12.86;100.00
9307;BME280;4691;47.612;7.610;2023-04-25T10:19:49;98514.56;;;12.60;100.00
9307;BME280;4691;47.612;7.610;2023-04-25T10:22:18;98520.72;;;12.31;100.00
9307;BME280;4691;47.612;7.610;2023-04-25T10:24:46;98508.50;;;11.98;100.00
9307;BME280;4691;47.612;7.610;2023-04-25T10:27:12;98495.28;;;11.75;100.00
9307;BME280;4691;47.612;7.610;2023-04-25T10:29:37;98486.78;;;11.40;100.00
9307;BME280;4691;47.612;7.610;2023-04-25T10:32:03;98461.81;;;11.60;100.00
9307;BME280;4691;47.612;7.610;2023-04-25T10:37:04;98467.25;;;12.30;100.00
9307;BME280;4691;47.612;7.610;2023-04-25T10:39:29;98480.63;;;13.17;100.00
9307;BME280;4691;47.612;7.610;2023-04-25T10:41:58;98492.84;;;13.59;100.00
9307;BME280;4691;47.612;7.610;2023-04-25T10:44:27;98486.50;;;14.43;100.00
9307;BME280;4691;47.612;7.610;2023-04-25T10:46:56;98497.88;;;15.26;100.00
9307;BME280;4691;47.612;7.610;2023-04-25T10:49:33;98477.16;;;17.29;100.00
9307;BME280;4691;47.612;7.610;2023-04-25T10:54:52;98459.09;;;17.94;100.00
9307;BME280;4691;47.612;7.610;2023-04-25T10:59:53;98441.09;;;19.62;100.00
9307;BME280;4691;47.612;7.610;2023-04-25T11:02:19;98445.16;;;19.81;100.00
9307;BME280;4691;47.612;7.610;2023-04-25T11:04:44;98414.63;;;19.34;100.00
9307;BME280;4691;47.612;7.610;2023-04-25T11:07:23;98429.19;;;19.33;100.00
9307;BME280;4691;47.612;7.610;2023-04-25T11:09:51;98438.44;;;19.39;100.00
9307;BME280;4691;47.612;7.610;2023-04-25T11:12:17;98430.81;;;20.02;100.00
9307;BME280;4691;47.612;7.610;2023-04-25T11:14:42;98405.63;;;20.87;100.00
9307;BME280;4691;47.612;7.610;2023-04-25T11:17:08;98415.13;;;20.98;100.00
9307;BME280;4691;47.612;7.610;2023-04-25T11:19:34;98399.19;;;20.67;100.00
9307;BME280;4691;47.612;7.610;2023-04-25T11:22:00;98452.47;;;19.28;100.00
9307;BME280;4691;47.612;7.610;2023-04-25T11:24:32;98454.19;;;19.58;100.00
9307;BME280;4691;47.612;7.610;2023-04-25T11:27:00;98493.47;;;18.56;100.00
9307;BME280;4691;47.612;7.610;2023-04-25T11:29:28;98551.31;;;16.60;100.00
9307;BME280;4691;47.612;7.610;2023-04-25T11:31:55;98551.59;;;16.99;100.00
9307;BME280;4691;47.612;7.610;2023-04-25T11:34:23;98521.84;;;18.28;100.00
9307;BME280;4691;47.612;7.610;2023-04-25T11:36:50;98499.66;;;20.16;100.00
9307;BME280;4691;47.612;7.610;2023-04-25T11:39:15;98453.50;;;20.31;100.00
9307;BME280;4691;47.612;7.610;2023-04-25T11:41:43;98497.78;;;18.34;100.00
9307;BME280;4691;47.612;7.610;2023-04-25T11:44:09;98535.56;;;17.06;100.00
9307;BME280;4691;47.612;7.610;2023-04-25T11:46:34;98569.13;;;15.32;100.00
9307;BME280;4691;47.612;7.610;2023-04-25T11:49:00;98578.94;;;14.42;100.00
9307;BME280;4691;47.612;7.610;2023-04-25T11:51:26;98587.63;;;13.98;100.00
9307;BME280;4691;47.612;7.610;2023-04-25T11:53:52;98605.00;;;13.57;100.00
9307;BME280;4691;47.612;7.610;2023-04-25T11:56:17;98607.09;;;13.04;100.00
9307;BME280;4691;47.612;7.610;2023-04-25T11:59:03;98599.69;;;12.17;100.00
9307;BME280;4691;47.612;7.610;2023-04-25T12:01:36;98562.22;;;11.45;100.00
9307;BME280;4691;47.612;7.610;2023-04-25T12:04:15;98515.53;;;10.96;100.00
9307;BME280;4691;47.612;7.610;2023-04-25T12:06:42;98463.03;;;10.41;100.00
9307;BME280;4691;47.612;7.610;2023-04-25T12:09:09;98390.19;;;10.17;100.00
9307;BME280;4691;47.612;7.610;2023-04-25T12:11:47;98372.13;;;9.77;100.00
9307;BME280;4691;47.612;7.610;2023-04-25T12:14:21;98381.63;;;9.47;100.00
9307;BME280;4691;47.612;7.610;2023-04-25T12:16:48;98334.47;;;9.80;100.00
9307;BME280;4691;47.612;7.610;2023-04-25T12:19:14;98255.00;;;10.05;100.00
9307;BME280;4691;47.612;7.610;2023-04-25T12:21:40;98202.16;;;10.29;100.00
9307;BME280;4691;47.612;7.610;2023-04-25T12:24:32;98185.16;;;10.71;100.00
9307;BME280;4691;47.612;7.610;2023-04-25T12:27:03;98224.69;;;11.07;100.00
9307;BME280;4691;47.612;7.610;2023-04-25T12:29:30;98319.44;;;10.74;100.00
9307;BME280;4691;47.612;7.610;2023-04-25T12:31:56;98324.19;;;10.71;100.00
9307;BME280;4691;47.612;7.610;2023-04-25T12:34:22;98321.41;;;10.72;100.00
9307;BME280;4691;47.612;7.610;2023-04-25T12:36:50;98348.66;;;10.66;100.00
9307;BME280;4691;47.612;7.610;2023-04-25T12:39:20;98343.72;;;10.61;100.00
9307;BME280;4691;47.612;7.610;2023-04-25T12:41:47;98368.03;;;10.58;100.00
9307;BME280;4691;47.612;7.610;2023-04-25T12:44:13;98366.00;;;11.73;100.00
9307;BME280;4691;47.612;7.610;2023-04-25T12:46:39;98391.19;;;13.36;100.00
9307;BME280;4691;47.612;7.610;2023-04-25T12:49:04;98447.19;;;14.77;100.00
9307;BME280;4691;47.612;7.610;2023-04-25T12:51:31;98479.31;;;16.09;100.00
9307;BME280;4691;47.612;7.610;2023-04-25T12:53:58;98513.91;;;17.71;100.00
9307;BME280;4691;47.612;7.610;2023-04-25T12:56:23;98553.34;;;18.21;100.00
9307;BME280;4691;47.612;7.610;2023-04-25T12:58:49;98556.28;;;18.43;100.00
9307;BME280;4691;47.612;7.610;2023-04-25T13:01:15;98561.41;;;17.66;100.00
9307;BME280;4691;47.612;7.610;2023-04-25T13:03:40;98594.66;;;17.41;100.00
9307;BME280;4691;47.612;7.610;2023-04-25T13:06:06;98608.88;;;17.76;100.00
9307;BME280;4691;47.612;7.610;2023-04-25T13:08:32;98598.91;;;17.11;100.00
9307;BME280;4691;47.612;7.610;2023-04-25T13:10:57;98624.72;;;17.14;100.00
9307;BME280;4691;47.612;7.610;2023-04-25T13:13:22;98605.97;;;18.02;100.00
9307;BME280;4691;47.612;7.610;2023-04-25T13:15:48;98612.97;;;16.38;100.00
9307;BME280;4691;47.612;7.610;2023-04-25T13:18:13;98616.13;;;16.60;100.00
9307;BME280;4691;47.612;7.610;2023-04-25T13:20:38;98625.78;;;15.22;100.00
9307;BME280;4691;47.612;7.610;2023-04-25T13:23:04;98622.13;;;14.77;100.00